sensor_id;sensor_type;location;lat;lon;timestamp;P1;durP1;ratioP1;P2;durP2;ratioP2
19095;SDS011;9680;52.520;13.332;2022-07-30T00:01:13;5.75;;;2.08;;
19095;SDS011;9680;52.520;13.332;2022-07-30T00:03:38;5.68;;;2.00;;
19095;SDS011;9680;52.520;13.332;2022-07-30T00:06:04;3.70;;;2.30;;
19095;SDS011;9680;52.520;13.332;2022-07-30T00:08:30;3.92;;;2.38;;
19095;SDS011;9680;52.520;13.332;2022-07-30T00:10:55;6.70;;;2.30;;
19095;SDS011;9680;52.520;13.332;2022-07-30T00:13:21;5.40;;;2.38;;
19095;SDS011;9680;52.520;13.332;2022-07-30T00:15:46;10.38;;;2.30;;
19095;SDS011;9680;52.520;13.332;2022-07-30T00:18:12;5.07;;;2.20;;
19095;SDS011;9680;52.520;13.332;2022-07-30T00:20:38;5.95;;;2.25;;
19095;SDS011;9680;52.520;13.332;2022-07-30T00:23:04;9.65;;;2.22;;
19095;SDS011;9680;52.520;13.332;2022-07-30T00:25:30;8.93;;;2.15;;
19095;SDS011;9680;52.520;13.332;2022-07-30T00:27:56;3.88;;;2.28;;
19095;SDS011;9680;52.520;13.332;2022-07-30T00:30:22;8.57;;;2.45;;
19095;SDS011;9680;52.520;13.332;2022-07-30T00:32:48;12.45;;;2.53;;
19095;SDS011;9680;52.520;13.332;2022-07-30T00:35:13;4.28;;;2.20;;
19095;SDS011;9680;52.520;13.332;2022-07-30T00:37:39;6.13;;;2.30;;
19095;SDS011;9680;52.520;13.332;2022-07-30T00:40:05;6.97;;;2.40;;
19095;SDS011;9680;52.520;13.332;2022-07-30T00:42:36;4.00;;;2.15;;
19095;SDS011;9680;52.520;13.332;2022-07-30T00:45:08;2.92;;;2.13;;
19095;SDS011;9680;52.520;13.332;2022-07-30T00:47:34;7.18;;;2.40;;
19095;SDS011;9680;52.520;13.332;2022-07-30T00:50:00;7.50;;;2.28;;
19095;SDS011;9680;52.520;13.332;2022-07-30T00:52:31;6.90;;;2.30;;
19095;SDS011;9680;52.520;13.332;2022-07-30T00:54:57;6.50;;;2.10;;
19095;SDS011;9680;52.520;13.332;2022-07-30T00:57:25;5.22;;;1.77;;
19095;SDS011;9680;52.520;13.332;2022-07-30T00:59:51;3.05;;;2.20;;
19095;SDS011;9680;52.520;13.332;2022-07-30T01:02:17;6.43;;;2.28;;
19095;SDS011;9680;52.520;13.332;2022-07-30T01:04:43;4.97;;;2.38;;
19095;SDS011;9680;52.520;13.332;2022-07-30T01:07:09;3.58;;;2.03;;
19095;SDS011;9680;52.520;13.332;2022-07-30T01:09:35;3.83;;;2.00;;
19095;SDS011;9680;52.520;13.332;2022-07-30T01:12:01;3.53;;;2.30;;
19095;SDS011;9680;52.520;13.332;2022-07-30T01:14:27;5.20;;;2.30;;
19095;SDS011;9680;52.520;13.332;2022-07-30T01:16:53;5.22;;;2.60;;
19095;SDS011;9680;52.520;13.332;2022-07-30T01:19:23;4.03;;;2.33;;
19095;SDS011;9680;52.520;13.332;2022-07-30T01:25:16;4.60;;;2.20;;
19095;SDS011;9680;52.520;13.332;2022-07-30T01:28:11;3.72;;;2.17;;
19095;SDS011;9680;52.520;13.332;2022-07-30T01:30:40;6.25;;;2.30;;
19095;SDS011;9680;52.520;13.332;2022-07-30T01:33:13;4.65;;;2.35;;
19095;SDS011;9680;52.520;13.332;2022-07-30T01:35:40;7.40;;;2.40;;
19095;SDS011;9680;52.520;13.332;2022-07-30T01:38:09;6.28;;;2.38;;
19095;SDS011;9680;52.520;13.332;2022-07-30T01:40:38;3.38;;;2.28;;
19095;SDS011;9680;52.520;13.332;2022-07-30T01:43:06;3.78;;;2.40;;
19095;SDS011;9680;52.520;13.332;2022-07-30T01:45:33;3.63;;;2.15;;
19095;SDS011;9680;52.520;13.332;2022-07-30T01:48:00;4.45;;;2.63;;
19095;SDS011;9680;52.520;13.332;2022-07-30T01:50:28;8.02;;;2.13;;
19095;SDS011;9680;52.520;13.332;2022-07-30T01:52:55;4.78;;;2.25;;
19095;SDS011;9680;52.520;13.332;2022-07-30T01:55:32;4.47;;;2.33;;
19095;SDS011;9680;52.520;13.332;2022-07-30T01:58:00;3.45;;;2.20;;
19095;SDS011;9680;52.520;13.332;2022-07-30T02:00:31;7.32;;;2.50;;
19095;SDS011;9680;52.520;13.332;2022-07-30T02:03:00;6.78;;;2.78;;
19095;SDS011;9680;52.520;13.332;2022-07-30T02:05:27;7.88;;;2.53;;
19095;SDS011;9680;52.520;13.332;2022-07-30T02:07:59;5.45;;;2.30;;
19095;SDS011;9680;52.520;13.332;2022-07-30T02:12:59;6.95;;;2.70;;
19095;SDS011;9680;52.520;13.332;2022-07-30T02:21:00;7.45;;;2.53;;
19095;SDS011;9680;52.520;13.332;2022-07-30T02:23:30;5.32;;;2.35;;
19095;SDS011;9680;52.520;13.332;2022-07-30T02:25:59;4.72;;;2.58;;
19095;SDS011;9680;52.520;13.332;2022-07-30T02:28:28;6.63;;;2.40;;
19095;SDS011;9680;52.520;13.332;2022-07-30T02:30:57;6.63;;;2.15;;
19095;SDS011;9680;52.520;13.332;2022-07-30T02:33:26;6.22;;;2.60;;
19095;SDS011;9680;52.520;13.332;2022-07-30T02:35:57;4.93;;;2.50;;
19095;SDS011;9680;52.520;13.332;2022-07-30T02:38:25;6.57;;;2.35;;
19095;SDS011;9680;52.520;13.332;2022-07-30T02:40:56;3.65;;;2.40;;
19095;SDS011;9680;52.520;13.332;2022-07-30T02:43:24;4.30;;;2.58;;
19095;SDS011;9680;52.520;13.332;2022-07-30T02:45:51;5.65;;;2.53;;
19095;SDS011;9680;52.520;13.332;2022-07-30T02:48:21;7.93;;;2.38;;
19095;SDS011;9680;52.520;13.332;2022-07-30T02:50:50;3.67;;;2.28;;
19095;SDS011;9680;52.520;13.332;2022-07-30T02:53:17;5.22;;;2.35;;
19095;SDS011;9680;52.520;13.332;2022-07-30T02:55:45;5.88;;;2.42;;
19095;SDS011;9680;52.520;13.332;2022-07-30T02:58:14;5.13;;;2.45;;
19095;SDS011;9680;52.520;13.332;2022-07-30T03:00:44;4.25;;;2.40;;
19095;SDS011;9680;52.520;13.332;2022-07-30T03:03:11;3.22;;;2.20;;
19095;SDS011;9680;52.520;13.332;2022-07-30T03:05:38;5.30;;;2.30;;
19095;SDS011;9680;52.520;13.332;2022-07-30T03:08:05;7.05;;;2.38;;
19095;SDS011;9680;52.520;13.332;2022-07-30T03:10:32;3.80;;;2.10;;
19095;SDS011;9680;52.520;13.332;2022-07-30T03:13:01;5.32;;;2.35;;
19095;SDS011;9680;52.520;13.332;2022-07-30T03:15:29;7.97;;;2.35;;
19095;SDS011;9680;52.520;13.332;2022-07-30T03:17:58;5.57;;;2.25;;
19095;SDS011;9680;52.520;13.332;2022-07-30T03:20:28;6.13;;;2.15;;
19095;SDS011;9680;52.520;13.332;2022-07-30T03:22:56;4.65;;;2.10;;
19095;SDS011;9680;52.520;13.332;2022-07-30T03:25:26;4.30;;;2.28;;
19095;SDS011;9680;52.520;13.332;2022-07-30T03:27:55;4.60;;;2.22;;
19095;SDS011;9680;52.520;13.332;2022-07-30T03:30:25;9.55;;;2.22;;
19095;SDS011;9680;52.520;13.332;2022-07-30T03:32:52;6.97;;;2.05;;
19095;SDS011;9680;52.520;13.332;2022-07-30T03:35:19;8.05;;;2.03;;
19095;SDS011;9680;52.520;13.332;2022-07-30T03:37:46;2.97;;;1.90;;
19095;SDS011;9680;52.520;13.332;2022-07-30T03:40:13;8.07;;;2.22;;
19095;SDS011;9680;52.520;13.332;2022-07-30T03:42:39;3.33;;;2.10;;
19095;SDS011;9680;52.520;13.332;2022-07-30T03:45:05;3.92;;;2.30;;
19095;SDS011;9680;52.520;13.332;2022-07-30T03:47:33;4.20;;;2.00;;
19095;SDS011;9680;52.520;13.332;2022-07-30T03:50:02;11.23;;;2.55;;
19095;SDS011;9680;52.520;13.332;2022-07-30T03:52:34;4.47;;;2.30;;
19095;SDS011;9680;52.520;13.332;2022-07-30T03:55:03;5.57;;;2.22;;
19095;SDS011;9680;52.520;13.332;2022-07-30T03:57:53;6.20;;;2.13;;
19095;SDS011;9680;52.520;13.332;2022-07-30T04:00:24;6.07;;;2.20;;
19095;SDS011;9680;52.520;13.332;2022-07-30T04:02:51;2.92;;;2.03;;
19095;SDS011;9680;52.520;13.332;2022-07-30T04:05:43;4.20;;;2.10;;
19095;SDS011;9680;52.520;13.332;2022-07-30T04:08:10;4.82;;;1.90;;
19095;SDS011;9680;52.520;13.332;2022-07-30T04:10:37;3.38;;;1.98;;
19095;SDS011;9680;52.520;13.332;2022-07-30T04:13:22;5.28;;;2.10;;
19095;SDS011;9680;52.520;13.332;2022-07-30T04:18:41;4.82;;;2.30;;
19095;SDS011;9680;52.520;13.332;2022-07-30T04:21:11;5.88;;;2.20;;
19095;SDS011;9680;52.520;13.332;2022-07-30T04:23:40;4.25;;;2.10;;
19095;SDS011;9680;52.520;13.332;2022-07-30T04:26:08;6.35;;;2.00;;
19095;SDS011;9680;52.520;13.332;2022-07-30T04:28:34;4.25;;;2.08;;
19095;SDS011;9680;52.520;13.332;2022-07-30T04:31:01;6.15;;;1.92;;
19095;SDS011;9680;52.520;13.332;2022-07-30T04:33:28;4.07;;;2.10;;
19095;SDS011;9680;52.520;13.332;2022-07-30T04:36:06;8.20;;;1.95;;
19095;SDS011;9680;52.520;13.332;2022-07-30T04:38:34;2.95;;;2.03;;
19095;SDS011;9680;52.520;13.332;2022-07-30T04:41:00;8.75;;;2.03;;
19095;SDS011;9680;52.520;13.332;2022-07-30T04:43:30;5.88;;;1.80;;
19095;SDS011;9680;52.520;13.332;2022-07-30T04:45:55;4.20;;;2.05;;
19095;SDS011;9680;52.520;13.332;2022-07-30T04:48:22;5.35;;;1.90;;
19095;SDS011;9680;52.520;13.332;2022-07-30T04:50:50;9.32;;;2.35;;
19095;SDS011;9680;52.520;13.332;2022-07-30T04:53:20;7.13;;;1.98;;
19095;SDS011;9680;52.520;13.332;2022-07-30T04:55:51;4.70;;;2.10;;
19095;SDS011;9680;52.520;13.332;2022-07-30T04:58:21;5.55;;;2.20;;
19095;SDS011;9680;52.520;13.332;2022-07-30T05:00:47;9.07;;;2.35;;
19095;SDS011;9680;52.520;13.332;2022-07-30T05:03:21;4.65;;;1.88;;
19095;SDS011;9680;52.520;13.332;2022-07-30T05:05:49;3.03;;;1.90;;
19095;SDS011;9680;52.520;13.332;2022-07-30T05:08:16;2.90;;;1.80;;
19095;SDS011;9680;52.520;13.332;2022-07-30T05:10:42;3.00;;;1.80;;
19095;SDS011;9680;52.520;13.332;2022-07-30T05:13:10;3.67;;;2.00;;
19095;SDS011;9680;52.520;13.332;2022-07-30T05:15:38;4.95;;;1.80;;
19095;SDS011;9680;52.520;13.332;2022-07-30T05:18:06;3.15;;;1.75;;
19095;SDS011;9680;52.520;13.332;2022-07-30T05:20:36;3.97;;;1.98;;
19095;SDS011;9680;52.520;13.332;2022-07-30T05:23:22;4.88;;;1.75;;
19095;SDS011;9680;52.520;13.332;2022-07-30T05:26:10;4.50;;;1.67;;
19095;SDS011;9680;52.520;13.332;2022-07-30T05:28:43;3.70;;;1.75;;
19095;SDS011;9680;52.520;13.332;2022-07-30T05:31:11;3.05;;;1.40;;
19095;SDS011;9680;52.520;13.332;2022-07-30T05:33:37;4.68;;;1.67;;
19095;SDS011;9680;52.520;13.332;2022-07-30T05:36:03;7.63;;;2.10;;
19095;SDS011;9680;52.520;13.332;2022-07-30T05:38:30;7.22;;;1.70;;
19095;SDS011;9680;52.520;13.332;2022-07-30T05:41:14;4.78;;;1.65;;
19095;SDS011;9680;52.520;13.332;2022-07-30T05:43:59;4.35;;;1.70;;
19095;SDS011;9680;52.520;13.332;2022-07-30T05:46:25;4.63;;;1.73;;
19095;SDS011;9680;52.520;13.332;2022-07-30T05:48:51;5.65;;;1.60;;
19095;SDS011;9680;52.520;13.332;2022-07-30T05:51:17;2.72;;;1.73;;
19095;SDS011;9680;52.520;13.332;2022-07-30T05:53:45;2.97;;;1.80;;
19095;SDS011;9680;52.520;13.332;2022-07-30T05:56:36;5.93;;;1.63;;
19095;SDS011;9680;52.520;13.332;2022-07-30T05:59:09;3.15;;;1.67;;
19095;SDS011;9680;52.520;13.332;2022-07-30T06:02:04;3.38;;;1.70;;
19095;SDS011;9680;52.520;13.332;2022-07-30T06:04:49;9.07;;;2.13;;
19095;SDS011;9680;52.520;13.332;2022-07-30T06:07:15;8.70;;;2.05;;
19095;SDS011;9680;52.520;13.332;2022-07-30T06:09:41;2.78;;;1.83;;
19095;SDS011;9680;52.520;13.332;2022-07-30T06:12:07;5.63;;;1.90;;
19095;SDS011;9680;52.520;13.332;2022-07-30T06:14:33;4.25;;;2.13;;
19095;SDS011;9680;52.520;13.332;2022-07-30T06:16:59;4.95;;;1.77;;
19095;SDS011;9680;52.520;13.332;2022-07-30T06:19:30;3.88;;;1.98;;
19095;SDS011;9680;52.520;13.332;2022-07-30T06:21:56;8.63;;;1.90;;
19095;SDS011;9680;52.520;13.332;2022-07-30T06:24:23;5.75;;;1.98;;
19095;SDS011;9680;52.520;13.332;2022-07-30T06:27:04;3.47;;;1.98;;
19095;SDS011;9680;52.520;13.332;2022-07-30T06:29:30;4.25;;;1.90;;
19095;SDS011;9680;52.520;13.332;2022-07-30T06:31:55;4.65;;;1.58;;
19095;SDS011;9680;52.520;13.332;2022-07-30T06:34:21;6.32;;;2.00;;
19095;SDS011;9680;52.520;13.332;2022-07-30T06:36:47;3.67;;;1.80;;
19095;SDS011;9680;52.520;13.332;2022-07-30T06:39:18;4.28;;;1.60;;
19095;SDS011;9680;52.520;13.332;2022-07-30T06:41:55;2.75;;;1.70;;
19095;SDS011;9680;52.520;13.332;2022-07-30T06:44:24;6.95;;;1.60;;
19095;SDS011;9680;52.520;13.332;2022-07-30T06:47:08;6.25;;;2.03;;
19095;SDS011;9680;52.520;13.332;2022-07-30T06:49:36;5.50;;;1.88;;
19095;SDS011;9680;52.520;13.332;2022-07-30T06:52:04;3.45;;;1.80;;
19095;SDS011;9680;52.520;13.332;2022-07-30T06:54:30;6.32;;;1.80;;
19095;SDS011;9680;52.520;13.332;2022-07-30T06:57:11;7.95;;;2.05;;
19095;SDS011;9680;52.520;13.332;2022-07-30T06:59:37;3.38;;;1.90;;
19095;SDS011;9680;52.520;13.332;2022-07-30T07:02:05;3.78;;;1.63;;
19095;SDS011;9680;52.520;13.332;2022-07-30T07:04:40;4.60;;;1.70;;
19095;SDS011;9680;52.520;13.332;2022-07-30T07:07:06;12.60;;;2.00;;
19095;SDS011;9680;52.520;13.332;2022-07-30T07:09:35;3.05;;;1.88;;
19095;SDS011;9680;52.520;13.332;2022-07-30T07:12:20;4.63;;;1.95;;
19095;SDS011;9680;52.520;13.332;2022-07-30T07:14:46;5.10;;;1.98;;
19095;SDS011;9680;52.520;13.332;2022-07-30T07:17:12;4.28;;;2.08;;
19095;SDS011;9680;52.520;13.332;2022-07-30T07:19:55;4.88;;;2.03;;
19095;SDS011;9680;52.520;13.332;2022-07-30T07:22:21;2.53;;;1.83;;
19095;SDS011;9680;52.520;13.332;2022-07-30T07:24:46;3.28;;;1.90;;
19095;SDS011;9680;52.520;13.332;2022-07-30T07:27:16;2.70;;;1.75;;
19095;SDS011;9680;52.520;13.332;2022-07-30T07:29:44;7.20;;;2.05;;
19095;SDS011;9680;52.520;13.332;2022-07-30T07:32:09;2.85;;;1.85;;
19095;SDS011;9680;52.520;13.332;2022-07-30T07:34:36;3.42;;;1.75;;
19095;SDS011;9680;52.520;13.332;2022-07-30T07:37:02;3.92;;;1.85;;
19095;SDS011;9680;52.520;13.332;2022-07-30T07:39:27;3.30;;;1.60;;
19095;SDS011;9680;52.520;13.332;2022-07-30T07:41:54;3.95;;;1.75;;
19095;SDS011;9680;52.520;13.332;2022-07-30T07:44:24;7.00;;;2.00;;
19095;SDS011;9680;52.520;13.332;2022-07-30T07:46:53;9.32;;;2.00;;
19095;SDS011;9680;52.520;13.332;2022-07-30T07:49:19;7.85;;;2.20;;
19095;SDS011;9680;52.520;13.332;2022-07-30T07:51:47;2.65;;;1.77;;
19095;SDS011;9680;52.520;13.332;2022-07-30T07:54:15;2.25;;;1.70;;
19095;SDS011;9680;52.520;13.332;2022-07-30T07:56:41;5.63;;;1.90;;
19095;SDS011;9680;52.520;13.332;2022-07-30T07:59:09;2.42;;;1.73;;
19095;SDS011;9680;52.520;13.332;2022-07-30T08:01:35;4.60;;;2.22;;
19095;SDS011;9680;52.520;13.332;2022-07-30T08:04:27;6.00;;;2.08;;
19095;SDS011;9680;52.520;13.332;2022-07-30T08:07:21;6.15;;;1.67;;
19095;SDS011;9680;52.520;13.332;2022-07-30T08:10:20;6.25;;;2.15;;
19095;SDS011;9680;52.520;13.332;2022-07-30T08:13:05;4.00;;;2.10;;
19095;SDS011;9680;52.520;13.332;2022-07-30T08:15:35;3.92;;;1.80;;
19095;SDS011;9680;52.520;13.332;2022-07-30T08:18:27;5.28;;;2.05;;
19095;SDS011;9680;52.520;13.332;2022-07-30T08:21:13;3.30;;;1.90;;
19095;SDS011;9680;52.520;13.332;2022-07-30T08:23:39;2.58;;;1.95;;
19095;SDS011;9680;52.520;13.332;2022-07-30T08:26:05;4.75;;;2.08;;
19095;SDS011;9680;52.520;13.332;2022-07-30T08:28:32;3.90;;;2.17;;
19095;SDS011;9680;52.520;13.332;2022-07-30T08:31:00;2.53;;;1.85;;
19095;SDS011;9680;52.520;13.332;2022-07-30T08:33:26;8.68;;;2.10;;
19095;SDS011;9680;52.520;13.332;2022-07-30T08:35:51;2.90;;;1.90;;
19095;SDS011;9680;52.520;13.332;2022-07-30T08:38:17;5.30;;;2.00;;
19095;SDS011;9680;52.520;13.332;2022-07-30T08:40:43;4.78;;;2.03;;
19095;SDS011;9680;52.520;13.332;2022-07-30T08:43:08;4.55;;;1.95;;
19095;SDS011;9680;52.520;13.332;2022-07-30T08:45:35;11.45;;;3.00;;
19095;SDS011;9680;52.520;13.332;2022-07-30T08:48:13;4.80;;;2.20;;
19095;SDS011;9680;52.520;13.332;2022-07-30T08:50:43;4.03;;;2.42;;
19095;SDS011;9680;52.520;13.332;2022-07-30T08:53:28;4.70;;;2.10;;
19095;SDS011;9680;52.520;13.332;2022-07-30T08:55:55;4.40;;;2.10;;
19095;SDS011;9680;52.520;13.332;2022-07-30T09:00:54;3.17;;;1.85;;
19095;SDS011;9680;52.520;13.332;2022-07-30T09:03:20;3.92;;;2.00;;
19095;SDS011;9680;52.520;13.332;2022-07-30T09:05:46;5.82;;;2.50;;
19095;SDS011;9680;52.520;13.332;2022-07-30T09:08:12;3.75;;;2.10;;
19095;SDS011;9680;52.520;13.332;2022-07-30T09:10:38;3.20;;;2.10;;
19095;SDS011;9680;52.520;13.332;2022-07-30T09:13:04;2.38;;;1.85;;
19095;SDS011;9680;52.520;13.332;2022-07-30T09:15:29;6.88;;;2.00;;
19095;SDS011;9680;52.520;13.332;2022-07-30T09:17:58;3.58;;;2.00;;
19095;SDS011;9680;52.520;13.332;2022-07-30T09:22:58;7.85;;;2.15;;
19095;SDS011;9680;52.520;13.332;2022-07-30T09:25:44;5.88;;;2.03;;
19095;SDS011;9680;52.520;13.332;2022-07-30T09:28:30;4.30;;;2.15;;
19095;SDS011;9680;52.520;13.332;2022-07-30T09:31:18;5.32;;;2.10;;
19095;SDS011;9680;52.520;13.332;2022-07-30T09:34:23;5.55;;;2.20;;
19095;SDS011;9680;52.520;13.332;2022-07-30T09:37:03;4.45;;;1.83;;
19095;SDS011;9680;52.520;13.332;2022-07-30T09:39:41;4.82;;;2.00;;
19095;SDS011;9680;52.520;13.332;2022-07-30T09:42:18;2.60;;;1.75;;
19095;SDS011;9680;52.520;13.332;2022-07-30T09:44:49;6.10;;;2.00;;
19095;SDS011;9680;52.520;13.332;2022-07-30T09:47:32;3.88;;;1.90;;
19095;SDS011;9680;52.520;13.332;2022-07-30T09:52:35;5.72;;;2.00;;
19095;SDS011;9680;52.520;13.332;2022-07-30T09:55:03;3.53;;;1.95;;
19095;SDS011;9680;52.520;13.332;2022-07-30T09:57:33;4.18;;;1.70;;
19095;SDS011;9680;52.520;13.332;2022-07-30T10:00:20;2.83;;;1.70;;
19095;SDS011;9680;52.520;13.332;2022-07-30T10:02:58;6.03;;;2.00;;
19095;SDS011;9680;52.520;13.332;2022-07-30T10:05:52;5.50;;;2.00;;
19095;SDS011;9680;52.520;13.332;2022-07-30T10:08:21;4.13;;;2.20;;
19095;SDS011;9680;52.520;13.332;2022-07-30T10:11:11;3.35;;;2.25;;
19095;SDS011;9680;52.520;13.332;2022-07-30T10:13:38;2.97;;;1.95;;
19095;SDS011;9680;52.520;13.332;2022-07-30T10:16:05;4.50;;;1.90;;
19095;SDS011;9680;52.520;13.332;2022-07-30T10:18:31;3.35;;;2.00;;
19095;SDS011;9680;52.520;13.332;2022-07-30T10:21:16;2.97;;;2.00;;
19095;SDS011;9680;52.520;13.332;2022-07-30T10:24:10;3.78;;;2.10;;
19095;SDS011;9680;52.520;13.332;2022-07-30T10:26:48;7.05;;;1.92;;
19095;SDS011;9680;52.520;13.332;2022-07-30T10:29:36;3.72;;;1.63;;
19095;SDS011;9680;52.520;13.332;2022-07-30T10:32:02;3.50;;;1.90;;
19095;SDS011;9680;52.520;13.332;2022-07-30T10:34:28;2.80;;;1.60;;
19095;SDS011;9680;52.520;13.332;2022-07-30T10:36:59;3.90;;;1.88;;
19095;SDS011;9680;52.520;13.332;2022-07-30T10:39:28;5.63;;;1.70;;
19095;SDS011;9680;52.520;13.332;2022-07-30T10:47:47;4.45;;;1.77;;
19095;SDS011;9680;52.520;13.332;2022-07-30T10:50:15;4.15;;;1.80;;
19095;SDS011;9680;52.520;13.332;2022-07-30T10:52:53;6.88;;;1.90;;
19095;SDS011;9680;52.520;13.332;2022-07-30T10:55:24;2.45;;;1.55;;
19095;SDS011;9680;52.520;13.332;2022-07-30T11:03:25;4.90;;;1.70;;
19095;SDS011;9680;52.520;13.332;2022-07-30T11:06:23;5.50;;;1.60;;
19095;SDS011;9680;52.520;13.332;2022-07-30T11:08:44;2.80;;;1.58;;
19095;SDS011;9680;52.520;13.332;2022-07-30T11:13:49;4.93;;;1.52;;
19095;SDS011;9680;52.520;13.332;2022-07-30T11:21:29;4.07;;;1.70;;
19095;SDS011;9680;52.520;13.332;2022-07-30T11:23:56;4.35;;;1.60;;
19095;SDS011;9680;52.520;13.332;2022-07-30T11:40:23;2.20;;;1.30;;
19095;SDS011;9680;52.520;13.332;2022-07-30T11:46:16;11.98;;;1.60;;
19095;SDS011;9680;52.520;13.332;2022-07-30T11:49:00;2.15;;;1.40;;
19095;SDS011;9680;52.520;13.332;2022-07-30T11:51:39;2.28;;;1.63;;
19095;SDS011;9680;52.520;13.332;2022-07-30T11:54:06;2.85;;;1.38;;
19095;SDS011;9680;52.520;13.332;2022-07-30T11:56:34;3.85;;;1.38;;
19095;SDS011;9680;52.520;13.332;2022-07-30T11:59:01;2.85;;;1.42;;
19095;SDS011;9680;52.520;13.332;2022-07-30T12:01:27;3.30;;;1.58;;
19095;SDS011;9680;52.520;13.332;2022-07-30T12:03:55;3.28;;;1.50;;
19095;SDS011;9680;52.520;13.332;2022-07-30T12:06:21;3.22;;;1.27;;
19095;SDS011;9680;52.520;13.332;2022-07-30T12:08:51;3.20;;;1.20;;
19095;SDS011;9680;52.520;13.332;2022-07-30T12:11:18;2.05;;;1.40;;
19095;SDS011;9680;52.520;13.332;2022-07-30T12:13:56;3.15;;;1.50;;
19095;SDS011;9680;52.520;13.332;2022-07-30T12:16:24;3.20;;;1.60;;
19095;SDS011;9680;52.520;13.332;2022-07-30T12:18:50;3.22;;;1.50;;
19095;SDS011;9680;52.520;13.332;2022-07-30T12:21:16;3.20;;;1.45;;
19095;SDS011;9680;52.520;13.332;2022-07-30T12:23:55;5.43;;;1.92;;
19095;SDS011;9680;52.520;13.332;2022-07-30T12:26:27;1.92;;;1.50;;
19095;SDS011;9680;52.520;13.332;2022-07-30T12:29:13;3.97;;;1.65;;
19095;SDS011;9680;52.520;13.332;2022-07-30T12:31:39;4.45;;;1.42;;
19095;SDS011;9680;52.520;13.332;2022-07-30T12:34:21;2.60;;;1.50;;
19095;SDS011;9680;52.520;13.332;2022-07-30T12:36:48;2.17;;;1.40;;
19095;SDS011;9680;52.520;13.332;2022-07-30T12:39:18;3.33;;;1.50;;
19095;SDS011;9680;52.520;13.332;2022-07-30T12:41:51;5.00;;;1.80;;
19095;SDS011;9680;52.520;13.332;2022-07-30T12:44:34;11.05;;;1.80;;
19095;SDS011;9680;52.520;13.332;2022-07-30T12:47:04;5.00;;;1.67;;
19095;SDS011;9680;52.520;13.332;2022-07-30T12:49:41;3.28;;;1.60;;
19095;SDS011;9680;52.520;13.332;2022-07-30T12:52:07;7.22;;;1.80;;
19095;SDS011;9680;52.520;13.332;2022-07-30T12:54:33;1.75;;;1.30;;
19095;SDS011;9680;52.520;13.332;2022-07-30T12:56:59;2.88;;;1.60;;
19095;SDS011;9680;52.520;13.332;2022-07-30T12:59:27;1.92;;;1.45;;
19095;SDS011;9680;52.520;13.332;2022-07-30T13:01:53;3.08;;;1.70;;
19095;SDS011;9680;52.520;13.332;2022-07-30T13:04:20;2.90;;;1.52;;
19095;SDS011;9680;52.520;13.332;2022-07-30T13:07:01;1.80;;;1.30;;
19095;SDS011;9680;52.520;13.332;2022-07-30T13:09:32;1.92;;;1.30;;
19095;SDS011;9680;52.520;13.332;2022-07-30T13:11:58;2.75;;;1.58;;
19095;SDS011;9680;52.520;13.332;2022-07-30T13:14:23;5.25;;;1.58;;
19095;SDS011;9680;52.520;13.332;2022-07-30T13:16:49;4.82;;;2.05;;
19095;SDS011;9680;52.520;13.332;2022-07-30T13:19:19;1.50;;;1.30;;
19095;SDS011;9680;52.520;13.332;2022-07-30T13:21:45;4.38;;;1.45;;
19095;SDS011;9680;52.520;13.332;2022-07-30T13:24:11;2.88;;;1.73;;
19095;SDS011;9680;52.520;13.332;2022-07-30T13:26:37;3.60;;;1.60;;
19095;SDS011;9680;52.520;13.332;2022-07-30T13:29:03;8.68;;;1.80;;
19095;SDS011;9680;52.520;13.332;2022-07-30T13:31:28;1.88;;;1.45;;
19095;SDS011;9680;52.520;13.332;2022-07-30T13:33:54;6.07;;;2.03;;
19095;SDS011;9680;52.520;13.332;2022-07-30T13:36:20;2.28;;;1.70;;
19095;SDS011;9680;52.520;13.332;2022-07-30T13:38:45;2.30;;;1.52;;
19095;SDS011;9680;52.520;13.332;2022-07-30T13:41:11;2.38;;;1.50;;
19095;SDS011;9680;52.520;13.332;2022-07-30T13:43:40;4.40;;;1.50;;
19095;SDS011;9680;52.520;13.332;2022-07-30T13:46:07;9.70;;;2.10;;
19095;SDS011;9680;52.520;13.332;2022-07-30T13:48:33;4.10;;;1.67;;
19095;SDS011;9680;52.520;13.332;2022-07-30T13:51:00;2.80;;;1.60;;
19095;SDS011;9680;52.520;13.332;2022-07-30T13:53:26;2.25;;;1.70;;
19095;SDS011;9680;52.520;13.332;2022-07-30T13:55:52;4.03;;;1.60;;
19095;SDS011;9680;52.520;13.332;2022-07-30T13:58:18;6.13;;;1.85;;
19095;SDS011;9680;52.520;13.332;2022-07-30T14:00:43;2.80;;;1.50;;
19095;SDS011;9680;52.520;13.332;2022-07-30T14:03:09;2.38;;;1.33;;
19095;SDS011;9680;52.520;13.332;2022-07-30T14:05:35;5.20;;;1.50;;
19095;SDS011;9680;52.520;13.332;2022-07-30T14:08:02;2.33;;;1.60;;
19095;SDS011;9680;52.520;13.332;2022-07-30T14:10:29;5.97;;;1.38;;
19095;SDS011;9680;52.520;13.332;2022-07-30T14:12:55;3.33;;;1.60;;
19095;SDS011;9680;52.520;13.332;2022-07-30T14:15:24;2.60;;;1.38;;
19095;SDS011;9680;52.520;13.332;2022-07-30T14:17:51;4.03;;;1.83;;
19095;SDS011;9680;52.520;13.332;2022-07-30T14:20:17;2.42;;;1.48;;
19095;SDS011;9680;52.520;13.332;2022-07-30T14:22:43;5.50;;;1.40;;
19095;SDS011;9680;52.520;13.332;2022-07-30T14:25:09;2.83;;;1.50;;
19095;SDS011;9680;52.520;13.332;2022-07-30T14:27:35;2.33;;;1.70;;
19095;SDS011;9680;52.520;13.332;2022-07-30T14:30:02;6.38;;;1.55;;
19095;SDS011;9680;52.520;13.332;2022-07-30T14:32:30;2.33;;;1.50;;
19095;SDS011;9680;52.520;13.332;2022-07-30T14:34:56;3.67;;;1.38;;
19095;SDS011;9680;52.520;13.332;2022-07-30T14:37:21;2.80;;;1.50;;
19095;SDS011;9680;52.520;13.332;2022-07-30T14:39:47;2.92;;;1.65;;
19095;SDS011;9680;52.520;13.332;2022-07-30T14:42:12;4.70;;;1.55;;
19095;SDS011;9680;52.520;13.332;2022-07-30T14:44:38;7.07;;;1.48;;
19095;SDS011;9680;52.520;13.332;2022-07-30T14:47:03;2.25;;;1.50;;
19095;SDS011;9680;52.520;13.332;2022-07-30T14:49:29;4.18;;;1.85;;
19095;SDS011;9680;52.520;13.332;2022-07-30T14:51:54;5.47;;;1.60;;
19095;SDS011;9680;52.520;13.332;2022-07-30T14:54:20;2.38;;;1.75;;
19095;SDS011;9680;52.520;13.332;2022-07-30T14:56:46;7.60;;;1.70;;
19095;SDS011;9680;52.520;13.332;2022-07-30T14:59:12;3.75;;;1.70;;
19095;SDS011;9680;52.520;13.332;2022-07-30T15:01:37;3.97;;;1.67;;
19095;SDS011;9680;52.520;13.332;2022-07-30T15:04:03;3.20;;;1.70;;
19095;SDS011;9680;52.520;13.332;2022-07-30T15:06:33;3.35;;;1.70;;
19095;SDS011;9680;52.520;13.332;2022-07-30T15:08:59;2.17;;;1.50;;
19095;SDS011;9680;52.520;13.332;2022-07-30T15:11:25;2.65;;;1.77;;
19095;SDS011;9680;52.520;13.332;2022-07-30T15:13:50;2.30;;;1.60;;
19095;SDS011;9680;52.520;13.332;2022-07-30T15:16:16;3.70;;;1.50;;
19095;SDS011;9680;52.520;13.332;2022-07-30T15:18:43;2.38;;;1.60;;
19095;SDS011;9680;52.520;13.332;2022-07-30T15:21:09;2.45;;;1.67;;
19095;SDS011;9680;52.520;13.332;2022-07-30T15:23:36;4.30;;;1.60;;
19095;SDS011;9680;52.520;13.332;2022-07-30T15:26:05;5.45;;;1.70;;
19095;SDS011;9680;52.520;13.332;2022-07-30T15:28:34;2.60;;;1.60;;
19095;SDS011;9680;52.520;13.332;2022-07-30T15:31:00;2.33;;;1.52;;
19095;SDS011;9680;52.520;13.332;2022-07-30T15:33:27;1.98;;;1.50;;
19095;SDS011;9680;52.520;13.332;2022-07-30T15:35:52;2.45;;;1.60;;
19095;SDS011;9680;52.520;13.332;2022-07-30T15:38:18;4.35;;;1.60;;
19095;SDS011;9680;52.520;13.332;2022-07-30T15:40:43;3.67;;;1.70;;
19095;SDS011;9680;52.520;13.332;2022-07-30T15:43:09;3.58;;;1.58;;
19095;SDS011;9680;52.520;13.332;2022-07-30T15:45:35;5.85;;;2.28;;
19095;SDS011;9680;52.520;13.332;2022-07-30T15:48:00;10.18;;;1.48;;
19095;SDS011;9680;52.520;13.332;2022-07-30T15:50:26;4.40;;;1.50;;
19095;SDS011;9680;52.520;13.332;2022-07-30T15:52:52;2.47;;;1.70;;
19095;SDS011;9680;52.520;13.332;2022-07-30T15:55:18;3.08;;;1.50;;
19095;SDS011;9680;52.520;13.332;2022-07-30T15:57:44;3.53;;;1.60;;
19095;SDS011;9680;52.520;13.332;2022-07-30T16:00:10;4.85;;;2.35;;
19095;SDS011;9680;52.520;13.332;2022-07-30T16:02:40;4.32;;;1.60;;